sensor_id;sensor_type;location;lat;lon;timestamp;pressure;altitude;pressure_sealevel;temperature;humidity
44148;BME280;29810;55.848;37.368;2022-10-16T00:01:58;100285.09;;;4.29;75.71
44148;BME280;29810;55.848;37.368;2022-10-16T00:05:00;100281.69;;;4.30;75.82
44148;BME280;29810;55.848;37.368;2022-10-16T00:08:02;100283.41;;;4.30;75.70
44148;BME280;29810;55.848;37.368;2022-10-16T00:14:13;100286.84;;;4.27;76.07
44148;BME280;29810;55.848;37.368;2022-10-16T00:17:15;100292.81;;;4.20;75.92
44148;BME280;29810;55.848;37.368;2022-10-16T00:20:16;100285.06;;;4.17;75.97
44148;BME280;29810;55.848;37.368;2022-10-16T00:23:37;100297.97;;;4.19;76.01
44148;BME280;29810;55.848;37.368;2022-10-16T00:26:39;100298.81;;;4.18;76.20
44148;BME280;29810;55.848;37.368;2022-10-16T00:29:41;100298.81;;;4.18;76.16
44148;BME280;29810;55.848;37.368;2022-10-16T00:32:42;100303.12;;;4.17;76.25
44148;BME280;29810;55.848;37.368;2022-10-16T00:35:44;100296.28;;;4.22;76.28
44148;BME280;29810;55.848;37.368;2022-10-16T00:38:45;100304.03;;;4.22;76.16
44148;BME280;29810;55.848;37.368;2022-10-16T00:41:47;100306.59;;;4.24;76.21
44148;BME280;29810;55.848;37.368;2022-10-16T00:44:54;100298.81;;;4.19;75.84
44148;BME280;29810;55.848;37.368;2022-10-16T00:47:58;100303.09;;;4.15;75.95
44148;BME280;29810;55.848;37.368;2022-10-16T00:50:59;100300.44;;;4.05;76.28
44148;BME280;29810;55.848;37.368;2022-10-16T00:54:03;100305.66;;;4.09;76.44
44148;BME280;29810;55.848;37.368;2022-10-16T00:57:06;100309.97;;;4.13;76.62
44148;BME280;29810;55.848;37.368;2022-10-16T01:00:10;100314.22;;;4.07;76.28
44148;BME280;29810;55.848;37.368;2022-10-16T01:03:33;100318.53;;;4.08;76.48
44148;BME280;29810;55.848;37.368;2022-10-16T01:06:46;100307.38;;;4.10;77.02
44148;BME280;29810;55.848;37.368;2022-10-16T01:13:35;100317.66;;;4.06;76.69
44148;BME280;29810;55.848;37.368;2022-10-16T01:16:52;100314.16;;;3.97;76.84
44148;BME280;29810;55.848;37.368;2022-10-16T01:33:27;100328.78;;;3.98;77.54
44148;BME280;29810;55.848;37.368;2022-10-16T01:36:37;100325.34;;;3.98;77.12
44148;BME280;29810;55.848;37.368;2022-10-16T01:39:42;100327.84;;;3.89;76.96
44148;BME280;29810;55.848;37.368;2022-10-16T01:42:52;100328.63;;;3.81;76.95
44148;BME280;29810;55.848;37.368;2022-10-16T01:45:57;100328.69;;;3.86;77.54
44148;BME280;29810;55.848;37.368;2022-10-16T01:49:01;100315.72;;;3.75;77.20
44148;BME280;29810;55.848;37.368;2022-10-16T01:52:11;100331.28;;;3.86;77.59
44148;BME280;29810;55.848;37.368;2022-10-16T01:55:17;100331.28;;;3.86;77.89
44148;BME280;29810;55.848;37.368;2022-10-16T01:58:23;100330.38;;;3.83;77.54
44148;BME280;29810;55.848;37.368;2022-10-16T02:01:26;100336.34;;;3.77;77.48
44148;BME280;29810;55.848;37.368;2022-10-16T02:04:44;100330.34;;;3.76;77.75
44148;BME280;29810;55.848;37.368;2022-10-16T02:07:47;100329.47;;;3.76;78.04
44148;BME280;29810;55.848;37.368;2022-10-16T02:10:50;100334.63;;;3.76;77.82
44148;BME280;29810;55.848;37.368;2022-10-16T02:13:57;100307.84;;;3.60;77.80
44148;BME280;29810;55.848;37.368;2022-10-16T02:16:59;100333.72;;;3.71;78.00
44148;BME280;29810;55.848;37.368;2022-10-16T02:20:01;100338.81;;;3.64;77.81
44148;BME280;29810;55.848;37.368;2022-10-16T02:23:04;100338.81;;;3.64;78.05
44148;BME280;29810;55.848;37.368;2022-10-16T02:26:08;100345.69;;;3.65;78.05
44148;BME280;29810;55.848;37.368;2022-10-16T02:29:12;100336.22;;;3.64;78.54
44148;BME280;29810;55.848;37.368;2022-10-16T02:32:19;100345.69;;;3.62;78.34
44148;BME280;29810;55.848;37.368;2022-10-16T02:35:24;100347.38;;;3.60;78.39
44148;BME280;29810;55.848;37.368;2022-10-16T02:38:26;100349.00;;;3.52;78.25
44148;BME280;29810;55.848;37.368;2022-10-16T02:41:28;100355.00;;;3.51;78.42
44148;BME280;29810;55.848;37.368;2022-10-16T02:44:29;100358.44;;;3.50;78.46
44148;BME280;29810;55.848;37.368;2022-10-16T02:47:31;100351.59;;;3.51;78.33
44148;BME280;29810;55.848;37.368;2022-10-16T02:50:32;100355.00;;;3.48;78.21
44148;BME280;29810;55.848;37.368;2022-10-16T02:53:34;100346.25;;;3.35;78.29
44148;BME280;29810;55.848;37.368;2022-10-16T02:56:36;100353.16;;;3.38;78.73
44148;BME280;29810;55.848;37.368;2022-10-16T02:59:37;100356.59;;;3.40;78.57
44148;BME280;29810;55.848;37.368;2022-10-16T03:02:39;100360.00;;;3.36;78.79
44148;BME280;29810;55.848;37.368;2022-10-16T03:05:43;100363.47;;;3.35;78.84
44148;BME280;29810;55.848;37.368;2022-10-16T03:08:44;100368.66;;;3.41;79.00
44148;BME280;29810;55.848;37.368;2022-10-16T03:11:46;100372.06;;;3.37;78.88
44148;BME280;29810;55.848;37.368;2022-10-16T03:14:47;100372.03;;;3.34;78.91
44148;BME280;29810;55.848;37.368;2022-10-16T03:17:49;100370.22;;;3.28;78.92
44148;BME280;29810;55.848;37.368;2022-10-16T03:20:50;100361.63;;;3.24;79.16
44148;BME280;29810;55.848;37.368;2022-10-16T03:23:52;100372.81;;;3.28;79.33
44148;BME280;29810;55.848;37.368;2022-10-16T03:26:53;100371.12;;;3.28;79.12
44148;BME280;29810;55.848;37.368;2022-10-16T03:29:55;100369.37;;;3.29;79.13
44148;BME280;29810;55.848;37.368;2022-10-16T03:32:56;100373.78;;;3.35;79.03
44148;BME280;29810;55.848;37.368;2022-10-16T03:35:58;100382.28;;;3.30;79.16
44148;BME280;29810;55.848;37.368;2022-10-16T03:38:59;100372.78;;;3.25;79.24
44148;BME280;29810;55.848;37.368;2022-10-16T03:42:00;100368.41;;;3.18;79.31
44148;BME280;29810;55.848;37.368;2022-10-16T03:45:02;100378.75;;;3.21;79.41
44148;BME280;29810;55.848;37.368;2022-10-16T03:48:05;100383.91;;;3.19;79.61
44148;BME280;29810;55.848;37.368;2022-10-16T03:51:06;100385.63;;;3.20;79.63
44148;BME280;29810;55.848;37.368;2022-10-16T03:54:10;100388.16;;;3.17;79.76
44148;BME280;29810;55.848;37.368;2022-10-16T03:57:11;100381.25;;;3.14;79.72
44148;BME280;29810;55.848;37.368;2022-10-16T04:00:13;100388.12;;;3.14;79.59
44148;BME280;29810;55.848;37.368;2022-10-16T04:03:15;100396.72;;;3.14;79.85
44148;BME280;29810;55.848;37.368;2022-10-16T04:06:16;100388.97;;;3.13;79.79
44148;BME280;29810;55.848;37.368;2022-10-16T04:09:18;100382.09;;;3.12;79.93
44148;BME280;29810;55.848;37.368;2022-10-16T04:12:19;100395.09;;;3.23;79.81
44148;BME280;29810;55.848;37.368;2022-10-16T04:15:25;100390.84;;;3.28;nan
44148;BME280;29810;55.848;37.368;2022-10-16T04:18:26;100385.66;;;3.23;79.45
44148;BME280;29810;55.848;37.368;2022-10-16T04:21:28;100380.47;;;3.20;79.54
44148;BME280;29810;55.848;37.368;2022-10-16T04:24:29;100380.63;;;3.36;79.42
44148;BME280;29810;55.848;37.368;2022-10-16T04:27:31;100386.72;;;3.41;79.20
44148;BME280;29810;55.848;37.368;2022-10-16T04:30:32;100385.00;;;3.41;78.79
44148;BME280;29810;55.848;37.368;2022-10-16T04:33:35;100386.78;;;3.45;78.75
44148;BME280;29810;55.848;37.368;2022-10-16T04:36:36;100397.09;;;3.47;78.69
44148;BME280;29810;55.848;37.368;2022-10-16T04:39:38;100402.31;;;3.53;78.44
44148;BME280;29810;55.848;37.368;2022-10-16T04:42:39;100396.28;;;3.51;78.31
44148;BME280;29810;55.848;37.368;2022-10-16T04:45:42;100389.37;;;3.50;78.26
44148;BME280;29810;55.848;37.368;2022-10-16T04:48:43;100397.25;;;3.62;78.00
44148;BME280;29810;55.848;37.368;2022-10-16T04:51:45;100368.72;;;3.44;77.88
44148;BME280;29810;55.848;37.368;2022-10-16T04:54:46;100401.50;;;3.59;78.07
44148;BME280;29810;55.848;37.368;2022-10-16T04:57:48;100398.03;;;3.55;77.80
44148;BME280;29810;55.848;37.368;2022-10-16T05:00:49;100410.19;;;3.65;77.60
44148;BME280;29810;55.848;37.368;2022-10-16T05:03:51;100400.75;;;3.68;77.35
44148;BME280;29810;55.848;37.368;2022-10-16T05:06:52;100405.06;;;3.69;77.26
44148;BME280;29810;55.848;37.368;2022-10-16T05:09:54;100402.53;;;3.73;77.28
44148;BME280;29810;55.848;37.368;2022-10-16T05:12:55;100402.59;;;3.83;77.23
44148;BME280;29810;55.848;37.368;2022-10-16T05:15:57;100410.41;;;3.89;76.90
44148;BME280;29810;55.848;37.368;2022-10-16T05:18:58;100402.72;;;3.93;76.46
44148;BME280;29810;55.848;37.368;2022-10-16T05:22:00;100389.84;;;3.93;76.31
44148;BME280;29810;55.848;37.368;2022-10-16T05:25:02;100405.47;;;4.10;76.24
44148;BME280;29810;55.848;37.368;2022-10-16T05:28:04;100398.56;;;4.11;75.93
44148;BME280;29810;55.848;37.368;2022-10-16T05:31:06;100399.44;;;4.11;75.56
44148;BME280;29810;55.848;37.368;2022-10-16T05:34:08;100415.88;;;4.24;75.45
44148;BME280;29810;55.848;37.368;2022-10-16T05:37:09;100414.25;;;4.34;75.29
44148;BME280;29810;55.848;37.368;2022-10-16T05:40:12;100413.47;;;4.44;75.02
44148;BME280;29810;55.848;37.368;2022-10-16T05:43:14;100414.28;;;4.39;74.39
44148;BME280;29810;55.848;37.368;2022-10-16T05:46:16;100418.59;;;4.41;74.40
44148;BME280;29810;55.848;37.368;2022-10-16T05:49:17;100422.12;;;4.53;74.22
44148;BME280;29810;55.848;37.368;2022-10-16T05:52:19;100417.91;;;4.66;74.19
44148;BME280;29810;55.848;37.368;2022-10-16T05:55:20;100427.47;;;4.76;73.74
44148;BME280;29810;55.848;37.368;2022-10-16T05:58:22;100414.56;;;4.79;73.23
44148;BME280;29810;55.848;37.368;2022-10-16T06:01:23;100425.81;;;4.90;73.10
44148;BME280;29810;55.848;37.368;2022-10-16T06:04:26;100422.41;;;4.96;72.74
44148;BME280;29810;55.848;37.368;2022-10-16T06:07:27;100423.28;;;5.00;72.85
44148;BME280;29810;55.848;37.368;2022-10-16T06:10:29;100421.50;;;4.94;72.30
44148;BME280;29810;55.848;37.368;2022-10-16T06:13:30;100430.22;;;5.10;72.38
44148;BME280;29810;55.848;37.368;2022-10-16T06:16:34;100419.94;;;5.22;71.80
44148;BME280;29810;55.848;37.368;2022-10-16T06:19:35;100417.34;;;5.21;71.27
44148;BME280;29810;55.848;37.368;2022-10-16T06:22:37;100420.00;;;5.39;71.25
44148;BME280;29810;55.848;37.368;2022-10-16T06:25:38;100423.47;;;5.46;70.75
44148;BME280;29810;55.848;37.368;2022-10-16T06:28:40;100423.47;;;5.46;70.52
44148;BME280;29810;55.848;37.368;2022-10-16T06:31:43;100429.53;;;5.51;70.65
44148;BME280;29810;55.848;37.368;2022-10-16T06:34:45;100432.12;;;5.59;70.38
44148;BME280;29810;55.848;37.368;2022-10-16T06:37:46;100430.47;;;5.79;70.09
44148;BME280;29810;55.848;37.368;2022-10-16T06:40:48;100439.97;;;5.82;69.62
44148;BME280;29810;55.848;37.368;2022-10-16T06:43:50;100428.75;;;5.83;69.31
44148;BME280;29810;55.848;37.368;2022-10-16T06:46:51;100441.69;;;5.95;69.05
44148;BME280;29810;55.848;37.368;2022-10-16T06:49:53;100434.00;;;5.99;68.67
44148;BME280;29810;55.848;37.368;2022-10-16T06:52:54;100433.97;;;6.06;68.46
44148;BME280;29810;55.848;37.368;2022-10-16T06:55:56;100440.91;;;6.15;68.43
44148;BME280;29810;55.848;37.368;2022-10-16T06:58:58;100442.62;;;6.19;68.18
44148;BME280;29810;55.848;37.368;2022-10-16T07:02:00;100438.31;;;6.26;67.83
44148;BME280;29810;55.848;37.368;2022-10-16T07:05:01;100439.19;;;6.29;67.68
44148;BME280;29810;55.848;37.368;2022-10-16T07:08:04;100442.62;;;6.35;67.61
44148;BME280;29810;55.848;37.368;2022-10-16T07:11:11;100440.91;;;6.41;67.31
44148;BME280;29810;55.848;37.368;2022-10-16T07:14:18;100437.44;;;6.50;66.87
44148;BME280;29810;55.848;37.368;2022-10-16T07:17:20;100441.75;;;6.63;66.52
44148;BME280;29810;55.848;37.368;2022-10-16T07:20:21;100438.28;;;6.72;66.48
44148;BME280;29810;55.848;37.368;2022-10-16T07:23:23;100443.47;;;6.78;66.22
44148;BME280;29810;55.848;37.368;2022-10-16T07:26:25;100443.44;;;6.85;65.97
44148;BME280;29810;55.848;37.368;2022-10-16T07:29:27;100435.66;;;6.89;66.04
44148;BME280;29810;55.848;37.368;2022-10-16T07:32:28;100440.81;;;6.99;65.56
44148;BME280;29810;55.848;37.368;2022-10-16T07:35:30;100442.53;;;7.09;65.69
44148;BME280;29810;55.848;37.368;2022-10-16T07:38:32;100453.72;;;7.19;65.20
44148;BME280;29810;55.848;37.368;2022-10-16T07:41:33;100458.06;;;7.24;64.96
44148;BME280;29810;55.848;37.368;2022-10-16T07:44:37;100446.75;;;7.32;64.62
44148;BME280;29810;55.848;37.368;2022-10-16T07:47:39;100448.47;;;7.42;64.38
44148;BME280;29810;55.848;37.368;2022-10-16T07:50:40;100448.41;;;7.51;64.26
44148;BME280;29810;55.848;37.368;2022-10-16T07:53:43;100452.72;;;7.58;63.82
44148;BME280;29810;55.848;37.368;2022-10-16T07:56:44;100448.38;;;7.63;63.57
44148;BME280;29810;55.848;37.368;2022-10-16T07:59:46;100452.59;;;7.80;63.39
44148;BME280;29810;55.848;37.368;2022-10-16T08:02:48;100452.50;;;7.99;62.82
44148;BME280;29810;55.848;37.368;2022-10-16T08:05:52;100448.09;;;8.08;62.27
44148;BME280;29810;55.848;37.368;2022-10-16T08:08:55;100449.66;;;8.29;61.64
44148;BME280;29810;55.848;37.368;2022-10-16T08:11:57;100447.88;;;8.38;61.06
44148;BME280;29810;55.848;37.368;2022-10-16T08:14:58;100446.06;;;8.51;61.31
44148;BME280;29810;55.848;37.368;2022-10-16T08:18:02;100446.00;;;8.60;61.08
44148;BME280;29810;55.848;37.368;2022-10-16T08:21:05;100445.81;;;8.75;60.23
44148;BME280;29810;55.848;37.368;2022-10-16T08:24:07;100439.72;;;8.78;59.88
44148;BME280;29810;55.848;37.368;2022-10-16T08:27:09;100443.94;;;8.93;60.02
44148;BME280;29810;55.848;37.368;2022-10-16T08:30:11;100437.78;;;9.02;59.53
44148;BME280;29810;55.848;37.368;2022-10-16T08:33:12;100440.31;;;9.06;59.25
44148;BME280;29810;55.848;37.368;2022-10-16T08:36:17;100436.00;;;9.04;58.95
44148;BME280;29810;55.848;37.368;2022-10-16T08:39:18;100440.19;;;9.17;58.68
44148;BME280;29810;55.848;37.368;2022-10-16T08:46:08;100428.34;;;9.61;58.21
44148;BME280;29810;55.848;37.368;2022-10-16T08:49:17;100430.03;;;9.66;57.76
44148;BME280;29810;55.848;37.368;2022-10-16T08:52:19;100428.28;;;9.68;57.52
44148;BME280;29810;55.848;37.368;2022-10-16T08:58:45;100424.22;;;10.09;56.50
44148;BME280;29810;55.848;37.368;2022-10-16T09:01:50;100412.81;;;10.15;56.27
44148;BME280;29810;55.848;37.368;2022-10-16T09:08:25;100417.63;;;10.41;55.56
44148;BME280;29810;55.848;37.368;2022-10-16T09:18:29;100417.34;;;10.58;54.39
44148;BME280;29810;55.848;37.368;2022-10-16T09:21:36;100410.09;;;10.74;54.23
44148;BME280;29810;55.848;37.368;2022-10-16T09:24:40;100410.03;;;10.79;52.88
44148;BME280;29810;55.848;37.368;2022-10-16T09:27:45;100411.03;;;10.70;52.65
44148;BME280;29810;55.848;37.368;2022-10-16T09:30:47;100410.94;;;10.76;52.09
44148;BME280;29810;55.848;37.368;2022-10-16T09:33:55;100410.69;;;10.88;51.99
44148;BME280;29810;55.848;37.368;2022-10-16T09:36:59;100404.38;;;11.02;51.20
44148;BME280;29810;55.848;37.368;2022-10-16T09:40:02;100413.87;;;11.03;50.47
44148;BME280;29810;55.848;37.368;2022-10-16T09:43:18;100401.03;;;10.93;50.68
44148;BME280;29810;55.848;37.368;2022-10-16T09:46:33;100402.72;;;10.96;50.02
44148;BME280;29810;55.848;37.368;2022-10-16T09:49:35;100402.47;;;11.10;50.18
44148;BME280;29810;55.848;37.368;2022-10-16T09:52:37;100399.78;;;11.13;49.72
44148;BME280;29810;55.848;37.368;2022-10-16T09:55:49;100397.19;;;11.12;49.18
44148;BME280;29810;55.848;37.368;2022-10-16T09:58:56;100393.50;;;11.22;49.18
44148;BME280;29810;55.848;37.368;2022-10-16T10:02:01;100393.34;;;11.30;49.13
44148;BME280;29810;55.848;37.368;2022-10-16T10:05:14;100396.87;;;11.27;48.55
44148;BME280;29810;55.848;37.368;2022-10-16T10:08:18;100398.44;;;11.36;49.31
44148;BME280;29810;55.848;37.368;2022-10-16T10:14:48;100386.22;;;11.77;49.02
44148;BME280;29810;55.848;37.368;2022-10-16T10:17:55;100377.69;;;11.69;47.73
44148;BME280;29810;55.848;37.368;2022-10-16T10:21:00;100387.41;;;11.64;47.93
44148;BME280;29810;55.848;37.368;2022-10-16T10:24:02;100385.91;;;11.52;48.55
44148;BME280;29810;55.848;37.368;2022-10-16T10:27:15;100388.41;;;11.56;47.63
44148;BME280;29810;55.848;37.368;2022-10-16T10:36:40;100378.72;;;11.62;47.92
44148;BME280;29810;55.848;37.368;2022-10-16T10:39:52;100366.41;;;11.68;47.65
44148;BME280;29810;55.848;37.368;2022-10-16T10:50:16;100380.47;;;11.61;47.58
44148;BME280;29810;55.848;37.368;2022-10-16T10:57:10;100364.56;;;11.72;49.32
44148;BME280;29810;55.848;37.368;2022-10-16T11:00:40;100357.38;;;11.82;48.33
44148;BME280;29810;55.848;37.368;2022-10-16T11:07:38;100354.31;;;12.02;46.49
44148;BME280;29810;55.848;37.368;2022-10-16T11:14:20;100358.41;;;12.12;48.00
44148;BME280;29810;55.848;37.368;2022-10-16T11:17:30;100355.22;;;12.35;46.93
44148;BME280;29810;55.848;37.368;2022-10-16T11:20:39;100345.25;;;12.15;46.55
44148;BME280;29810;55.848;37.368;2022-10-16T11:27:17;100347.69;;;11.87;47.25
44148;BME280;29810;55.848;37.368;2022-10-16T11:30:24;100355.66;;;11.81;47.53
44148;BME280;29810;55.848;37.368;2022-10-16T11:36:40;100361.22;;;12.04;47.65
44148;BME280;29810;55.848;37.368;2022-10-16T11:39:44;100347.50;;;11.95;46.77
44148;BME280;29810;55.848;37.368;2022-10-16T11:42:54;100349.94;;;12.02;47.22
44148;BME280;29810;55.848;37.368;2022-10-16T11:46:11;100348.69;;;12.17;46.84
44148;BME280;29810;55.848;37.368;2022-10-16T11:49:20;100344.59;;;12.07;46.26
44148;BME280;29810;55.848;37.368;2022-10-16T11:55:40;100338.63;;;12.02;46.87
44148;BME280;29810;55.848;37.368;2022-10-16T11:58:59;100349.19;;;11.97;47.26
44148;BME280;29810;55.848;37.368;2022-10-16T12:08:54;100333.72;;;11.88;47.33
44148;BME280;29810;55.848;37.368;2022-10-16T12:11:56;100349.44;;;11.85;46.82
44148;BME280;29810;55.848;37.368;2022-10-16T12:18:23;100333.84;;;11.82;47.25
44148;BME280;29810;55.848;37.368;2022-10-16T12:21:30;100337.66;;;11.68;47.09
44148;BME280;29810;55.848;37.368;2022-10-16T12:24:38;100327.22;;;11.67;47.54
44148;BME280;29810;55.848;37.368;2022-10-16T12:27:39;100318.66;;;11.62;47.69
44148;BME280;29810;55.848;37.368;2022-10-16T12:30:42;100328.87;;;11.71;47.98
44148;BME280;29810;55.848;37.368;2022-10-16T12:33:58;100328.09;;;11.67;47.64
44148;BME280;29810;55.848;37.368;2022-10-16T12:37:32;100328.06;;;11.69;47.78
44148;BME280;29810;55.848;37.368;2022-10-16T12:40:36;100321.03;;;11.71;47.54
44148;BME280;29810;55.848;37.368;2022-10-16T12:43:39;100327.41;;;11.60;47.87
44148;BME280;29810;55.848;37.368;2022-10-16T12:46:43;100324.87;;;11.56;48.01
44148;BME280;29810;55.848;37.368;2022-10-16T12:49:50;100322.22;;;11.57;48.14
44148;BME280;29810;55.848;37.368;2022-10-16T12:52:52;100317.88;;;11.58;48.00
44148;BME280;29810;55.848;37.368;2022-10-16T12:56:20;100304.25;;;11.45;48.27
44148;BME280;29810;55.848;37.368;2022-10-16T13:00:00;100322.44;;;11.48;48.09
44148;BME280;29810;55.848;37.368;2022-10-16T13:03:29;100318.22;;;11.42;48.87
44148;BME280;29810;55.848;37.368;2022-10-16T13:06:47;100317.34;;;11.42;49.06
44148;BME280;29810;55.848;37.368;2022-10-16T13:16:34;100329.81;;;11.31;49.35
44148;BME280;29810;55.848;37.368;2022-10-16T13:29:37;100329.19;;;11.19;49.83
44148;BME280;29810;55.848;37.368;2022-10-16T13:32:45;100320.81;;;11.03;50.03
44148;BME280;29810;55.848;37.368;2022-10-16T13:35:51;100327.00;;;10.98;50.19
44148;BME280;29810;55.848;37.368;2022-10-16T13:39:06;100316.72;;;10.91;50.51
44148;BME280;29810;55.848;37.368;2022-10-16T13:42:14;100324.56;;;10.91;50.43
44148;BME280;29810;55.848;37.368;2022-10-16T13:45:18;100319.53;;;10.81;50.55
44148;BME280;29810;55.848;37.368;2022-10-16T13:48:20;100315.34;;;10.73;50.67
44148;BME280;29810;55.848;37.368;2022-10-16T13:51:21;100315.59;;;10.59;50.83
44148;BME280;29810;55.848;37.368;2022-10-16T13:54:27;100323.50;;;10.56;51.07
44148;BME280;29810;55.848;37.368;2022-10-16T13:57:29;100325.41;;;10.48;51.35
44148;BME280;29810;55.848;37.368;2022-10-16T14:00:33;100329.06;;;10.38;51.71
44148;BME280;29810;55.848;37.368;2022-10-16T14:03:35;100321.41;;;10.25;52.05
44148;BME280;29810;55.848;37.368;2022-10-16T14:06:45;100314.66;;;10.17;52.52
44148;BME280;29810;55.848;37.368;2022-10-16T14:09:50;100323.47;;;10.08;52.73
44148;BME280;29810;55.848;37.368;2022-10-16T14:13:05;100325.31;;;10.00;52.99
44148;BME280;29810;55.848;37.368;2022-10-16T14:16:09;100308.09;;;9.92;53.26
44148;BME280;29810;55.848;37.368;2022-10-16T14:19:29;100319.50;;;9.85;53.41
44148;BME280;29810;55.848;37.368;2022-10-16T14:22:40;100318.69;;;9.82;53.66
44148;BME280;29810;55.848;37.368;2022-10-16T14:25:41;100311.94;;;9.68;53.87
44148;BME280;29810;55.848;37.368;2022-10-16T14:28:44;100312.09;;;9.59;53.96
44148;BME280;29810;55.848;37.368;2022-10-16T14:31:56;100305.31;;;9.47;54.33
44148;BME280;29810;55.848;37.368;2022-10-16T14:34:58;100321.81;;;9.46;55.08
44148;BME280;29810;55.848;37.368;2022-10-16T14:38:01;100322.88;;;9.34;55.16
44148;BME280;29810;55.848;37.368;2022-10-16T14:41:04;100319.50;;;9.27;55.87
44148;BME280;29810;55.848;37.368;2022-10-16T14:44:13;100319.53;;;9.24;55.95
44148;BME280;29810;55.848;37.368;2022-10-16T14:47:21;100326.47;;;9.25;56.97
44148;BME280;29810;55.848;37.368;2022-10-16T14:50:27;100324.75;;;9.24;56.87
44148;BME280;29810;55.848;37.368;2022-10-16T14:53:29;100323.88;;;9.25;56.83
44148;BME280;29810;55.848;37.368;2022-10-16T14:56:34;100330.03;;;9.18;56.76
44148;BME280;29810;55.848;37.368;2022-10-16T14:59:43;100332.72;;;9.10;56.81
44148;BME280;29810;55.848;37.368;2022-10-16T15:02:48;100326.75;;;9.04;57.09
44148;BME280;29810;55.848;37.368;2022-10-16T15:05:50;100332.91;;;8.98;57.39
44148;BME280;29810;55.848;37.368;2022-10-16T15:08:52;100330.34;;;8.93;57.35
44148;BME280;29810;55.848;37.368;2022-10-16T15:11:53;100332.94;;;8.93;57.30
44148;BME280;29810;55.848;37.368;2022-10-16T15:14:55;100336.50;;;8.88;57.32
44148;BME280;29810;55.848;37.368;2022-10-16T15:17:57;100329.63;;;8.82;57.49
44148;BME280;29810;55.848;37.368;2022-10-16T15:20:59;100340.06;;;8.77;57.70
44148;BME280;29810;55.848;37.368;2022-10-16T15:24:01;100337.56;;;8.70;57.83
44148;BME280;29810;55.848;37.368;2022-10-16T15:27:02;100338.50;;;8.64;58.02
44148;BME280;29810;55.848;37.368;2022-10-16T15:30:05;100336.81;;;8.60;58.14
44148;BME280;29810;55.848;37.368;2022-10-16T15:33:12;100333.34;;;8.58;58.33
44148;BME280;29810;55.848;37.368;2022-10-16T15:36:15;100329.06;;;8.55;58.76
44148;BME280;29810;55.848;37.368;2022-10-16T15:39:18;100334.34;;;8.46;58.72
44148;BME280;29810;55.848;37.368;2022-10-16T15:42:20;100334.38;;;8.40;58.93
44148;BME280;29810;55.848;37.368;2022-10-16T15:45:21;100325.75;;;8.35;59.10
44148;BME280;29810;55.848;37.368;2022-10-16T15:48:23;100325.84;;;8.28;59.25
44148;BME280;29810;55.848;37.368;2022-10-16T15:51:25;100326.72;;;8.24;59.44
44148;BME280;29810;55.848;37.368;2022-10-16T15:54:32;100320.72;;;8.21;59.53
44148;BME280;29810;55.848;37.368;2022-10-16T15:57:33;100319.03;;;8.15;59.69
44148;BME280;29810;55.848;37.368;2022-10-16T16:00:35;100322.59;;;8.06;59.90
44148;BME280;29810;55.848;37.368;2022-10-16T16:03:38;100305.34;;;7.94;60.12
44148;BME280;29810;55.848;37.368;2022-10-16T16:06:43;100316.62;;;7.95;60.37
44148;BME280;29810;55.848;37.368;2022-10-16T16:09:46;100318.34;;;7.93;60.47
44148;BME280;29810;55.848;37.368;2022-10-16T16:12:48;100327.03;;;7.89;60.67
44148;BME280;29810;55.848;37.368;2022-10-16T16:15:57;100318.44;;;7.82;60.93
44148;BME280;29810;55.848;37.368;2022-10-16T16:19:05;100325.37;;;7.82;61.28
44148;BME280;29810;55.848;37.368;2022-10-16T16:22:09;100314.19;;;7.72;61.27
44148;BME280;29810;55.848;37.368;2022-10-16T16:25:10;100334.03;;;7.77;61.19
44148;BME280;29810;55.848;37.368;2022-10-16T16:28:13;100333.22;;;7.74;61.34
44148;BME280;29810;55.848;37.368;2022-10-16T16:31:16;100325.50;;;7.66;61.30
44148;BME280;29810;55.848;37.368;2022-10-16T16:34:21;100336.72;;;7.70;61.39
44148;BME280;29810;55.848;37.368;2022-10-16T16:37:27;100332.37;;;7.70;61.43
44148;BME280;29810;55.848;37.368;2022-10-16T16:40:29;100260.03;;;7.24;61.65
44148;BME280;29810;55.848;37.368;2022-10-16T16:43:30;100327.25;;;7.61;61.64
44148;BME280;29810;55.848;37.368;2022-10-16T16:46:33;100324.66;;;7.62;61.65
44148;BME280;29810;55.848;37.368;2022-10-16T16:49:40;100324.66;;;7.62;61.64
44148;BME280;29810;55.848;37.368;2022-10-16T16:52:42;100320.34;;;7.60;61.58
44148;BME280;29810;55.848;37.368;2022-10-16T16:55:43;100302.25;;;7.46;61.68
44148;BME280;29810;55.848;37.368;2022-10-16T16:58:46;100315.19;;;7.54;61.88
44148;BME280;29810;55.848;37.368;2022-10-16T17:01:48;100321.25;;;7.51;62.02
44148;BME280;29810;55.848;37.368;2022-10-16T17:04:50;100319.59;;;7.44;62.20
44148;BME280;29810;55.848;37.368;2022-10-16T17:07:51;100318.78;;;7.37;62.29
44148;BME280;29810;55.848;37.368;2022-10-16T17:10:53;100331.72;;;7.36;62.52
44148;BME280;29810;55.848;37.368;2022-10-16T17:13:58;100330.88;;;7.34;62.53
44148;BME280;29810;55.848;37.368;2022-10-16T17:17:00;100328.31;;;7.27;62.63
44148;BME280;29810;55.848;37.368;2022-10-16T17:20:01;100327.47;;;7.25;62.85
44148;BME280;29810;55.848;37.368;2022-10-16T17:23:04;100318.87;;;7.16;62.82
44148;BME280;29810;55.848;37.368;2022-10-16T17:26:07;100331.81;;;7.23;62.85
44148;BME280;29810;55.848;37.368;2022-10-16T17:29:11;100333.56;;;7.23;62.85
44148;BME280;29810;55.848;37.368;2022-10-16T17:32:13;100332.66;;;7.22;62.96
44148;BME280;29810;55.848;37.368;2022-10-16T17:35:16;100322.34;;;7.18;62.83
44148;BME280;29810;55.848;37.368;2022-10-16T17:38:17;100335.28;;;7.19;62.85
44148;BME280;29810;55.848;37.368;2022-10-16T17:41:21;100326.66;;;7.17;62.92
44148;BME280;29810;55.848;37.368;2022-10-16T17:44:23;100329.25;;;7.14;63.04